createdAt,value
2023-04-18T00:01:09.743Z,6.13
2023-04-18T00:03:32.824Z,5.70
2023-04-18T00:05:58.006Z,5.80
2023-04-18T00:08:20.322Z,5.73
2023-04-18T00:10:42.741Z,5.73
2023-04-18T00:13:05.008Z,5.73
2023-04-18T00:15:29.167Z,5.40
2023-04-18T00:17:52.468Z,5.80
2023-04-18T00:20:14.718Z,6.03
2023-04-18T00:22:42.227Z,5.50
2023-04-18T00:25:04.648Z,6.03
2023-04-18T00:27:27.163Z,6.27
2023-04-18T00:29:49.720Z,6.03
2023-04-18T00:32:12.060Z,5.60
2023-04-18T00:34:34.324Z,6.67
2023-04-18T00:36:56.562Z,6.27
2023-04-18T00:39:18.809Z,6.77
2023-04-18T00:41:41.103Z,7.00
2023-04-18T00:44:03.351Z,6.60
2023-04-18T00:46:25.769Z,6.13
2023-04-18T00:48:48.550Z,6.03
2023-04-18T00:51:10.831Z,5.87
2023-04-18T00:53:33.266Z,5.73
2023-04-18T00:55:55.728Z,6.03
2023-04-18T00:58:17.969Z,6.00
2023-04-18T01:00:40.814Z,6.97
2023-04-18T01:03:03.382Z,5.97
2023-04-18T01:05:26.030Z,6.60
2023-04-18T01:07:48.247Z,7.00
2023-04-18T01:10:11.548Z,7.00
2023-04-18T01:12:34.005Z,7.10
2023-04-18T01:14:56.427Z,7.23
2023-04-18T01:17:19.280Z,7.00
2023-04-18T01:19:41.696Z,6.53
2023-04-18T01:22:04.248Z,6.40
2023-04-18T01:24:29.786Z,6.70
2023-04-18T01:26:52.161Z,6.60
2023-04-18T01:29:14.537Z,7.20
2023-04-18T01:31:40.973Z,7.40
2023-04-18T01:34:03.691Z,6.33
2023-04-18T01:36:27.128Z,6.70
2023-04-18T01:38:49.415Z,6.90
2023-04-18T01:41:11.708Z,6.67
2023-04-18T01:43:33.990Z,7.60
2023-04-18T01:45:58.749Z,7.33
2023-04-18T01:48:20.942Z,7.57
2023-04-18T01:50:43.174Z,7.43
2023-04-18T01:53:06.274Z,8.17
2023-04-18T01:55:28.492Z,7.40
2023-04-18T01:57:51.027Z,7.93
2023-04-18T02:00:14.863Z,7.63
2023-04-18T02:02:37.268Z,7.63
2023-04-18T02:04:59.773Z,7.93
2023-04-18T02:07:22.049Z,8.37
2023-04-18T02:09:44.276Z,7.87
2023-04-18T02:12:07.032Z,7.53
2023-04-18T02:14:31.751Z,7.53
2023-04-18T02:16:56.105Z,8.50
2023-04-18T02:19:18.525Z,7.87
2023-04-18T02:21:41.877Z,7.63
2023-04-18T02:24:04.068Z,7.67
2023-04-18T02:26:26.317Z,8.10
2023-04-18T02:28:52.860Z,8.50
2023-04-18T02:31:17.375Z,8.43
2023-04-18T02:33:39.574Z,8.53
2023-04-18T02:36:01.932Z,9.27
2023-04-18T02:38:24.261Z,8.60
2023-04-18T02:40:47.626Z,8.37
2023-04-18T02:43:09.830Z,7.90
2023-04-18T02:45:32.801Z,8.40
2023-04-18T02:47:56.858Z,8.30
2023-04-18T02:50:19.352Z,8.80
2023-04-18T02:52:42.587Z,8.00
2023-04-18T02:55:04.980Z,7.93
2023-04-18T02:57:32.306Z,8.23
2023-04-18T03:00:32.715Z,8.00
2023-04-18T03:03:12.880Z,7.70
2023-04-18T03:05:44.039Z,8.07
2023-04-18T03:08:06.408Z,8.13
2023-04-18T03:10:31.595Z,8.73
2023-04-18T03:12:53.928Z,8.40
2023-04-18T03:15:17.012Z,8.17
2023-04-18T03:17:39.963Z,8.70
2023-04-18T03:20:02.382Z,9.47
2023-04-18T03:22:24.653Z,9.70
2023-04-18T03:24:51.967Z,9.17
2023-04-18T03:27:15.834Z,9.07
2023-04-18T03:29:40.246Z,9.03
2023-04-18T03:32:03.454Z,8.70
2023-04-18T03:34:25.981Z,8.33
2023-04-18T03:36:49.846Z,8.83
2023-04-18T03:39:12.636Z,8.57
2023-04-18T03:41:34.863Z,8.13
2023-04-18T03:43:57.747Z,7.97
2023-04-18T03:46:21.958Z,8.13
2023-04-18T03:48:47.070Z,8.23
2023-04-18T03:51:09.603Z,8.50
2023-04-18T03:53:33.062Z,8.80
2023-04-18T03:55:57.551Z,8.77
2023-04-18T03:58:30.786Z,9.10
2023-04-18T04:00:53.152Z,9.40
2023-04-18T04:03:15.670Z,8.93
2023-04-18T04:05:38.278Z,8.73
2023-04-18T04:08:00.609Z,8.40
2023-04-18T04:10:22.859Z,7.57
2023-04-18T04:12:46.886Z,8.70
2023-04-18T04:15:09.547Z,8.33
2023-04-18T04:17:35.422Z,9.03
2023-04-18T04:20:03.378Z,8.70
2023-04-18T04:22:27.353Z,9.33
2023-04-18T04:24:49.753Z,9.30
2023-04-18T04:27:19.106Z,8.70
2023-04-18T04:29:43.714Z,8.07
2023-04-18T04:32:06.972Z,9.07
2023-04-18T04:34:34.430Z,8.53
2023-04-18T04:36:58.784Z,9.40
2023-04-18T04:39:22.577Z,8.60
2023-04-18T04:42:05.377Z,9.13
2023-04-18T04:44:37.416Z,8.77
2023-04-18T04:47:02.766Z,8.77
2023-04-18T04:49:29.935Z,9.40
2023-04-18T04:51:52.162Z,10.27
2023-04-18T04:54:16.047Z,8.90
2023-04-18T04:56:38.636Z,8.90
2023-04-18T04:59:00.984Z,9.27
2023-04-18T05:01:31.207Z,9.87
2023-04-18T05:03:54.343Z,10.57
2023-04-18T05:06:20.633Z,9.90
2023-04-18T05:08:42.828Z,10.70
2023-04-18T05:11:05.150Z,9.17
2023-04-18T05:13:27.377Z,8.73
2023-04-18T05:15:49.607Z,8.70
2023-04-18T05:18:12.073Z,8.87
2023-04-18T05:20:34.343Z,9.47
2023-04-18T05:22:56.712Z,9.87
2023-04-18T05:25:19.195Z,9.57
2023-04-18T05:27:41.439Z,9.07
2023-04-18T05:30:03.716Z,9.97
2023-04-18T05:32:25.980Z,8.63
2023-04-18T05:34:48.921Z,10.10
2023-04-18T05:37:11.302Z,9.10
2023-04-18T05:39:33.560Z,8.80
2023-04-18T05:41:55.753Z,8.67
2023-04-18T05:44:18.428Z,8.70
2023-04-18T05:46:41.045Z,8.27
2023-04-18T05:49:03.709Z,8.40
2023-04-18T05:51:26.780Z,9.03
2023-04-18T05:53:49.070Z,8.27
2023-04-18T05:56:11.540Z,8.07
2023-04-18T05:58:33.830Z,8.17
2023-04-18T06:00:56.397Z,8.60
2023-04-18T06:03:18.931Z,7.67
2023-04-18T06:05:41.367Z,7.30
2023-04-18T06:08:03.700Z,8.37
2023-04-18T06:10:26.415Z,8.43
2023-04-18T06:12:48.696Z,6.47
2023-04-18T06:15:11.608Z,7.53
2023-04-18T06:17:34.978Z,7.13
2023-04-18T06:19:57.371Z,7.23
2023-04-18T06:22:19.678Z,6.80
2023-04-18T06:24:41.900Z,6.93
2023-04-18T06:27:04.440Z,6.90
2023-04-18T06:29:30.231Z,7.07
2023-04-18T06:31:52.560Z,7.73
2023-04-18T06:34:15.306Z,7.27
2023-04-18T06:36:37.792Z,7.57
2023-04-18T06:39:00.251Z,7.17
2023-04-18T06:41:22.762Z,7.07
2023-04-18T06:44:01.608Z,6.83
2023-04-18T06:46:25.003Z,6.93
2023-04-18T06:48:48.224Z,7.43
2023-04-18T06:51:11.275Z,7.13
2023-04-18T06:53:33.532Z,6.90
2023-04-18T06:55:55.876Z,6.93
2023-04-18T06:58:18.187Z,7.57
2023-04-18T07:00:40.667Z,7.43
2023-04-18T07:03:11.361Z,7.20
2023-04-18T07:05:33.880Z,7.33
2023-04-18T07:07:56.083Z,6.90
2023-04-18T07:10:18.306Z,7.90
2023-04-18T07:12:40.596Z,8.33
2023-04-18T07:15:03.683Z,8.40
2023-04-18T07:17:25.954Z,8.63
2023-04-18T07:19:48.288Z,8.23
2023-04-18T07:22:10.733Z,8.53
2023-04-18T07:24:33.225Z,8.30
2023-04-18T07:26:55.581Z,9.37
2023-04-18T07:29:19.423Z,9.30
2023-04-18T07:31:41.740Z,8.80
2023-04-18T07:34:04.735Z,9.00
2023-04-18T07:36:27.725Z,9.40
2023-04-18T07:38:51.636Z,9.20
2023-04-18T07:41:14.012Z,8.90
2023-04-18T07:43:36.535Z,9.03
2023-04-18T07:45:58.896Z,9.67
2023-04-18T07:48:27.463Z,8.87
2023-04-18T07:50:49.875Z,9.83
2023-04-18T07:53:12.108Z,8.77
2023-04-18T07:55:34.385Z,9.70
2023-04-18T07:57:56.572Z,10.07
2023-04-18T08:00:19.529Z,9.17
2023-04-18T08:02:42.031Z,8.50
2023-04-18T08:05:04.646Z,9.87
2023-04-18T08:07:27.317Z,8.87
2023-04-18T08:09:49.660Z,9.53
2023-04-18T08:12:11.891Z,9.20
2023-04-18T08:14:34.082Z,9.07
2023-04-18T08:16:56.648Z,9.80
2023-04-18T08:19:18.896Z,9.13
2023-04-18T08:21:41.115Z,9.73
2023-04-18T08:24:03.359Z,9.93
2023-04-18T08:26:25.982Z,9.40
2023-04-18T08:28:48.288Z,9.50
2023-04-18T08:31:13.417Z,9.43
2023-04-18T08:33:35.711Z,9.90
2023-04-18T08:35:58.243Z,9.60
2023-04-18T08:38:21.038Z,9.50
2023-04-18T08:40:44.121Z,9.70
2023-04-18T08:43:12.229Z,10.13
2023-04-18T08:45:34.734Z,10.23
2023-04-18T08:48:01.400Z,9.30
2023-04-18T08:50:23.753Z,9.20
2023-04-18T08:52:49.755Z,8.73
2023-04-18T08:55:12.443Z,9.35
2023-04-18T08:57:42.502Z,8.87
2023-04-18T09:00:11.621Z,9.53
2023-04-18T09:02:42.591Z,8.67
2023-04-18T09:05:13.243Z,7.90
2023-04-18T09:07:35.523Z,9.20
2023-04-18T09:09:58.179Z,9.67
2023-04-18T09:12:27.621Z,9.00
2023-04-18T09:14:51.276Z,8.90
2023-04-18T09:17:16.388Z,9.03
2023-04-18T09:19:46.332Z,8.47
2023-04-18T09:22:09.986Z,8.63
2023-04-18T09:24:32.501Z,8.67
2023-04-18T09:26:55.941Z,8.45
2023-04-18T09:29:22.500Z,8.90
2023-04-18T09:32:00.085Z,8.35
2023-04-18T09:34:26.446Z,8.18
2023-04-18T09:37:05.783Z,7.70
2023-04-18T09:39:28.586Z,7.60
2023-04-18T09:42:00.973Z,8.33
2023-04-18T09:44:23.421Z,7.38
2023-04-18T09:46:47.353Z,7.07
2023-04-18T09:49:11.121Z,8.30
2023-04-18T09:51:34.453Z,7.72
2023-04-18T09:53:56.742Z,7.35
2023-04-18T09:56:26.112Z,7.13
2023-04-18T09:58:51.620Z,7.00
2023-04-18T10:01:14.289Z,6.88
2023-04-18T10:03:42.649Z,7.45
2023-04-18T10:06:05.396Z,6.90
2023-04-18T10:08:28.205Z,6.93
2023-04-18T10:10:50.983Z,6.82
2023-04-18T10:13:14.900Z,6.63
2023-04-18T10:15:42.400Z,7.10
2023-04-18T10:18:11.316Z,6.35
2023-04-18T10:20:35.668Z,5.95
2023-04-18T10:22:58.935Z,6.75
2023-04-18T10:25:40.254Z,7.03
2023-04-18T10:28:03.863Z,7.25
2023-04-18T10:30:41.680Z,6.75
2023-04-18T10:33:30.309Z,7.13
2023-04-18T10:36:04.140Z,6.53
2023-04-18T10:38:29.633Z,7.60
2023-04-18T10:40:51.941Z,6.13
2023-04-18T10:43:14.369Z,6.88
2023-04-18T10:45:36.759Z,7.32
2023-04-18T10:48:17.976Z,6.60
2023-04-18T10:50:59.259Z,7.20
2023-04-18T10:53:21.934Z,7.63
2023-04-18T10:55:46.419Z,7.03
2023-04-18T10:58:09.006Z,7.57
2023-04-18T11:00:32.153Z,7.25
2023-04-18T11:02:58.030Z,6.20
2023-04-18T11:05:22.169Z,6.82
2023-04-18T11:07:46.203Z,7.90
2023-04-18T11:10:09.600Z,8.20
2023-04-18T11:12:33.047Z,7.82
2023-04-18T11:14:56.944Z,8.60
2023-04-18T11:17:20.768Z,7.43
2023-04-18T11:19:45.975Z,7.80
2023-04-18T11:22:08.332Z,8.02
2023-04-18T11:27:12.175Z,7.95
2023-04-18T11:32:36.369Z,7.50
2023-04-18T11:34:59.180Z,7.75
2023-04-18T11:37:21.821Z,8.65
2023-04-18T11:39:47.458Z,8.52
2023-04-18T11:42:10.245Z,7.60
2023-04-18T11:44:34.963Z,8.35
2023-04-18T11:46:58.578Z,8.80
2023-04-18T11:49:31.896Z,9.18
2023-04-18T11:51:54.279Z,8.93
2023-04-18T11:54:35.260Z,8.73
2023-04-18T11:56:57.779Z,7.97
2023-04-18T11:59:20.032Z,8.63
2023-04-18T12:01:42.339Z,8.60
2023-04-18T12:04:05.810Z,9.10
2023-04-18T12:06:29.616Z,8.48
2023-04-18T12:08:58.585Z,9.68
2023-04-18T12:11:21.606Z,8.88
2023-04-18T12:13:46.644Z,8.90
2023-04-18T12:16:08.941Z,8.20
2023-04-18T12:18:31.498Z,8.48
2023-04-18T12:20:54.454Z,9.02
2023-04-18T12:23:36.931Z,8.80
2023-04-18T12:26:00.573Z,8.77
2023-04-18T12:28:26.701Z,8.50
2023-04-18T12:30:48.937Z,8.00
2023-04-18T12:33:11.888Z,8.50
2023-04-18T12:35:34.121Z,9.50
2023-04-18T12:37:57.719Z,8.18
2023-04-18T12:40:20.736Z,8.90
2023-04-18T12:42:43.261Z,8.83
2023-04-18T12:45:07.735Z,8.03
2023-04-18T12:47:30.142Z,9.65
2023-04-18T12:49:52.626Z,8.80
2023-04-18T12:52:16.202Z,9.25
2023-04-18T12:54:38.778Z,8.77
2023-04-18T12:57:01.792Z,8.77
2023-04-18T12:59:33.402Z,8.30
2023-04-18T13:01:55.771Z,8.32
2023-04-18T13:04:18.731Z,8.23
2023-04-18T13:06:45.217Z,8.45
2023-04-18T13:09:08.189Z,8.63
2023-04-18T13:11:30.804Z,9.73
2023-04-18T13:14:00.632Z,9.23
2023-04-18T13:16:23.106Z,7.90
2023-04-18T13:18:45.727Z,8.50
2023-04-18T13:21:08.417Z,8.18
2023-04-18T13:23:30.862Z,9.13
2023-04-18T13:29:21.887Z,8.15
2023-04-18T13:31:44.594Z,7.13
2023-04-18T13:34:10.360Z,8.10
2023-04-18T13:36:34.767Z,7.70
2023-04-18T13:41:44.444Z,7.82
2023-04-18T13:44:08.159Z,7.93
2023-04-18T13:46:31.019Z,7.40
2023-04-18T13:49:00.721Z,7.32
2023-04-18T13:51:23.300Z,7.85
2023-04-18T13:53:45.851Z,8.15
2023-04-18T13:56:08.209Z,7.95
2023-04-18T13:58:30.549Z,8.15
2023-04-18T14:00:53.770Z,7.03
2023-04-18T14:03:16.349Z,7.78
2023-04-18T14:05:39.011Z,6.75
2023-04-18T14:10:40.512Z,8.40
2023-04-18T14:13:03.012Z,6.93
2023-04-18T14:15:25.316Z,7.28
2023-04-18T14:17:47.798Z,7.15
2023-04-18T14:20:10.795Z,7.60
2023-04-18T14:22:33.335Z,7.57
2023-04-18T14:25:17.112Z,7.25
2023-04-18T14:27:40.255Z,7.70
2023-04-18T14:30:02.620Z,7.55
2023-04-18T14:32:24.894Z,6.85
2023-04-18T14:34:54.816Z,8.20
2023-04-18T14:37:17.777Z,7.70
2023-04-18T14:39:40.264Z,7.70
2023-04-18T14:42:02.634Z,6.72
2023-04-18T14:44:25.128Z,7.60
2023-04-18T14:46:47.739Z,7.47
2023-04-18T14:49:10.049Z,6.95
2023-04-18T14:51:32.272Z,7.50
2023-04-18T14:53:55.542Z,6.82
2023-04-18T14:56:21.049Z,7.22
2023-04-18T14:58:44.004Z,6.63
2023-04-18T15:01:06.737Z,7.00
2023-04-18T15:03:29.231Z,6.93
2023-04-18T15:05:55.035Z,7.32
2023-04-18T15:08:17.559Z,6.57
2023-04-18T15:10:43.061Z,7.28
2023-04-18T15:13:05.540Z,6.57
2023-04-18T15:15:27.921Z,6.22
2023-04-18T15:17:50.463Z,6.40
2023-04-18T15:20:13.117Z,6.28
2023-04-18T15:22:36.328Z,6.20
2023-04-18T15:24:58.573Z,6.78
2023-04-18T15:27:20.821Z,6.63
2023-04-18T15:29:43.308Z,5.55
2023-04-18T15:32:06.429Z,5.63
2023-04-18T15:34:29.029Z,6.68
2023-04-18T15:36:51.560Z,5.97
2023-04-18T15:39:13.993Z,5.95
2023-04-18T15:41:37.462Z,6.00
2023-04-18T15:44:01.666Z,4.10
2023-04-18T15:46:24.190Z,5.20
2023-04-18T15:48:46.550Z,5.35
2023-04-18T15:51:08.897Z,5.20
2023-04-18T15:53:31.473Z,4.88
2023-04-18T15:55:53.995Z,4.80
2023-04-18T15:58:16.435Z,5.63
2023-04-18T16:00:47.447Z,5.97
2023-04-18T16:03:10.344Z,5.65
2023-04-18T16:05:32.854Z,5.75
2023-04-18T16:08:03.976Z,5.13
2023-04-18T16:10:26.334Z,4.95
2023-04-18T16:12:49.083Z,5.22
2023-04-18T16:15:11.925Z,4.70
2023-04-18T16:17:34.427Z,5.88
2023-04-18T16:19:56.986Z,6.25
2023-04-18T16:22:19.638Z,5.90
2023-04-18T16:24:42.307Z,30.95
2023-04-18T16:27:05.224Z,6.97
2023-04-18T16:29:27.665Z,6.80
2023-04-18T16:31:51.357Z,6.75
2023-04-18T16:34:15.732Z,6.88
2023-04-18T16:36:38.277Z,6.80
2023-04-18T16:41:46.924Z,5.40
2023-04-18T16:44:09.296Z,5.53
2023-04-18T16:46:32.251Z,5.90
2023-04-18T16:48:55.059Z,5.07
2023-04-18T16:51:17.458Z,5.30
2023-04-18T16:53:39.853Z,5.00
2023-04-18T16:56:03.155Z,4.80
2023-04-18T16:58:26.019Z,4.97
2023-04-18T17:00:48.334Z,4.90
2023-04-18T17:03:10.692Z,4.70
2023-04-18T17:05:33.532Z,4.35
2023-04-18T17:07:56.110Z,4.55
2023-04-18T17:10:19.916Z,4.22
2023-04-18T17:12:42.680Z,4.20
2023-04-18T17:15:05.341Z,4.22
2023-04-18T17:17:27.632Z,4.25
2023-04-18T17:19:50.119Z,4.00
2023-04-18T17:22:12.410Z,4.25
2023-04-18T17:24:36.954Z,7.00
2023-04-18T17:27:08.520Z,6.57
2023-04-18T17:29:31.026Z,7.75
2023-04-18T17:31:54.078Z,6.55
2023-04-18T17:34:16.399Z,5.32
2023-04-18T17:36:38.897Z,7.57
2023-04-18T17:39:07.330Z,11.20
2023-04-18T17:41:29.677Z,11.38
2023-04-18T17:43:51.993Z,9.65
2023-04-18T17:46:14.573Z,6.67
2023-04-18T17:48:36.892Z,3.70
2023-04-18T17:50:59.419Z,3.97
2023-04-18T17:53:22.323Z,3.72
2023-04-18T17:55:46.767Z,3.60
2023-04-18T17:58:09.254Z,3.50
2023-04-18T18:00:31.572Z,3.90
2023-04-18T18:02:54.013Z,4.10
2023-04-18T18:05:16.710Z,3.50
2023-04-18T18:07:38.953Z,3.33
2023-04-18T18:10:02.411Z,4.33
2023-04-18T18:12:24.727Z,3.47
2023-04-18T18:14:47.323Z,3.87
2023-04-18T18:17:09.722Z,4.10
2023-04-18T18:19:32.103Z,3.90
2023-04-18T18:21:54.393Z,3.22
2023-04-18T18:24:16.845Z,3.97
2023-04-18T18:26:39.099Z,3.30
2023-04-18T18:29:09.499Z,3.20
2023-04-18T18:31:31.996Z,3.75
2023-04-18T18:33:54.340Z,3.07
2023-04-18T18:36:16.681Z,3.60
2023-04-18T18:38:38.986Z,3.70
2023-04-18T18:41:03.759Z,3.80
2023-04-18T18:43:26.351Z,4.67
2023-04-18T18:45:48.654Z,5.40
2023-04-18T18:48:11.648Z,3.97
2023-04-18T18:50:34.619Z,4.23
2023-04-18T18:52:57.218Z,3.73
2023-04-18T18:55:19.531Z,4.43
2023-04-18T18:57:42.057Z,4.80
2023-04-18T19:00:05.389Z,5.70
2023-04-18T19:02:28.208Z,4.77
2023-04-18T19:04:50.956Z,5.30
2023-04-18T19:07:13.240Z,5.80
2023-04-18T19:09:36.905Z,4.77
2023-04-18T19:11:59.174Z,5.17
2023-04-18T19:14:21.591Z,7.20
2023-04-18T19:16:43.905Z,5.67
2023-04-18T19:19:07.185Z,5.80
2023-04-18T19:21:30.032Z,6.10
2023-04-18T19:23:52.410Z,6.87
2023-04-18T19:28:51.267Z,5.63
2023-04-18T19:31:13.554Z,6.13
2023-04-18T19:33:35.912Z,6.40
2023-04-18T19:35:58.189Z,5.13
2023-04-18T19:38:20.840Z,5.60
2023-04-18T19:40:43.122Z,7.40
2023-04-18T19:43:05.556Z,7.40
2023-04-18T19:45:27.855Z,5.67
2023-04-18T19:47:50.159Z,7.07
2023-04-18T19:50:12.421Z,6.10
2023-04-18T19:52:34.653Z,12.03
2023-04-18T19:54:56.877Z,7.27
2023-04-18T19:57:19.191Z,7.77
2023-04-18T19:59:41.503Z,6.70
2023-04-18T20:02:06.072Z,7.57
2023-04-18T20:04:31.448Z,6.33
2023-04-18T20:06:55.444Z,8.30
2023-04-18T20:09:17.814Z,7.27
2023-04-18T20:11:40.097Z,7.47
2023-04-18T20:14:02.435Z,6.60
2023-04-18T20:16:24.834Z,6.93
2023-04-18T20:18:47.677Z,5.67
2023-04-18T20:21:10.751Z,6.67
2023-04-18T20:23:33.155Z,6.43
2023-04-18T20:25:55.451Z,6.60
2023-04-18T20:28:17.798Z,6.80
2023-04-18T20:30:40.301Z,7.30
2023-04-18T20:33:03.129Z,8.40
2023-04-18T20:35:27.898Z,8.00
2023-04-18T20:37:50.252Z,8.67
2023-04-18T20:40:12.905Z,8.83
2023-04-18T20:42:36.704Z,8.50
2023-04-18T20:44:59.228Z,9.20
2023-04-18T20:47:21.663Z,12.47
2023-04-18T20:49:43.951Z,10.03
2023-04-18T20:52:09.342Z,8.97
2023-04-18T20:54:31.615Z,9.20
2023-04-18T20:56:53.867Z,9.33
2023-04-18T20:59:16.161Z,12.10
2023-04-18T21:01:38.490Z,10.53
2023-04-18T21:04:00.854Z,12.83
2023-04-18T21:06:23.248Z,10.80
2023-04-18T21:08:45.820Z,10.83
2023-04-18T21:11:11.551Z,10.57
2023-04-18T21:13:34.158Z,11.20
2023-04-18T21:15:57.191Z,9.90
2023-04-18T21:18:20.015Z,9.73
2023-04-18T21:20:42.362Z,8.97
2023-04-18T21:23:04.625Z,8.23
2023-04-18T21:25:26.921Z,9.03
2023-04-18T21:27:50.657Z,8.57
2023-04-18T21:30:13.239Z,9.27
2023-04-18T21:32:35.541Z,9.10
2023-04-18T21:34:57.916Z,9.80
2023-04-18T21:37:20.134Z,10.27
2023-04-18T21:39:42.594Z,9.33
2023-04-18T21:42:05.159Z,9.30
2023-04-18T21:44:27.495Z,8.90
2023-04-18T21:46:49.695Z,9.77
2023-04-18T21:49:11.939Z,8.27
2023-04-18T21:51:34.248Z,8.80
2023-04-18T21:53:56.511Z,8.63
2023-04-18T21:56:18.701Z,8.37
2023-04-18T21:58:40.974Z,8.90
2023-04-18T22:01:03.421Z,8.97
2023-04-18T22:03:27.505Z,8.93
2023-04-18T22:05:52.208Z,8.47
2023-04-18T22:08:17.707Z,8.37
2023-04-18T22:10:39.950Z,8.77
2023-04-18T22:13:04.758Z,8.80
2023-04-18T22:15:27.214Z,8.57
2023-04-18T22:17:50.348Z,8.57
2023-04-18T22:20:12.901Z,8.63
2023-04-18T22:22:35.143Z,8.87
2023-04-18T22:24:57.381Z,8.50
2023-04-18T22:27:19.579Z,8.20
2023-04-18T22:29:41.871Z,8.33
2023-04-18T22:32:04.102Z,9.03
2023-04-18T22:34:26.287Z,8.90
2023-04-18T22:36:48.491Z,9.30
2023-04-18T22:39:12.093Z,9.10
2023-04-18T22:41:34.341Z,8.60
2023-04-18T22:43:56.566Z,8.50
2023-04-18T22:46:19.114Z,8.90
2023-04-18T22:48:41.477Z,8.27
2023-04-18T22:51:03.675Z,8.80
2023-04-18T22:53:25.867Z,8.30
2023-04-18T22:55:48.034Z,9.03
2023-04-18T22:58:10.726Z,9.47
2023-04-18T23:00:33.453Z,9.00
2023-04-18T23:02:55.789Z,8.80
2023-04-18T23:05:18.085Z,9.73
2023-04-18T23:07:40.346Z,8.83
2023-04-18T23:10:04.328Z,8.50
2023-04-18T23:12:26.824Z,8.60
2023-04-18T23:14:49.207Z,8.77
2023-04-18T23:17:11.422Z,8.80
2023-04-18T23:19:33.846Z,8.73
2023-04-18T23:21:56.052Z,8.83
2023-04-18T23:24:18.246Z,9.20
2023-04-18T23:26:40.524Z,9.30
2023-04-18T23:29:03.147Z,9.23
2023-04-18T23:31:25.623Z,9.47
2023-04-18T23:33:47.927Z,9.80
2023-04-18T23:36:11.707Z,10.30
2023-04-18T23:38:33.991Z,8.83
2023-04-18T23:40:56.205Z,9.47
2023-04-18T23:43:18.454Z,10.50
2023-04-18T23:45:40.802Z,10.20
2023-04-18T23:48:03.033Z,10.33
2023-04-18T23:50:25.258Z,10.67
2023-04-18T23:52:47.544Z,10.90
2023-04-18T23:55:09.939Z,11.03
2023-04-18T23:57:32.201Z,9.97
2023-04-18T23:59:55.524Z,10.33
